sensor_id;sensor_type;location;lat;lon;timestamp;pressure;altitude;pressure_sealevel;temperature;humidity
66479;BME280;53294;47.912;13.526;2023-02-26T00:00:09;95158.72;;;2.65;67.68
66479;BME280;53294;47.912;13.526;2023-02-26T00:02:41;95163.47;;;2.89;66.72
66479;BME280;53294;47.912;13.526;2023-02-26T00:05:08;95168.72;;;2.99;66.62
66479;BME280;53294;47.912;13.526;2023-02-26T00:07:36;95170.34;;;2.95;66.57
66479;BME280;53294;47.912;13.526;2023-02-26T00:10:08;95170.28;;;3.05;66.64
66479;BME280;53294;47.912;13.526;2023-02-26T00:12:36;95167.94;;;2.88;66.80
66479;BME280;53294;47.912;13.526;2023-02-26T00:15:04;95174.06;;;2.84;66.73
66479;BME280;53294;47.912;13.526;2023-02-26T00:17:38;95172.97;;;2.95;66.81
66479;BME280;53294;47.912;13.526;2023-02-26T00:20:08;95178.78;;;3.02;65.90
66479;BME280;53294;47.912;13.526;2023-02-26T00:22:38;95172.47;;;2.88;66.43
66479;BME280;53294;47.912;13.526;2023-02-26T00:25:07;95171.16;;;2.91;66.70
66479;BME280;53294;47.912;13.526;2023-02-26T00:27:33;95169.81;;;2.88;66.77
66479;BME280;53294;47.912;13.526;2023-02-26T00:30:04;95165.84;;;2.91;66.67
66479;BME280;53294;47.912;13.526;2023-02-26T00:32:31;95171.47;;;2.74;66.86
66479;BME280;53294;47.912;13.526;2023-02-26T00:34:59;95168.56;;;2.60;67.51
66479;BME280;53294;47.912;13.526;2023-02-26T00:40:42;95172.84;;;2.30;68.02
66479;BME280;53294;47.912;13.526;2023-02-26T00:43:31;95168.38;;;2.10;69.00
66479;BME280;53294;47.912;13.526;2023-02-26T00:46:23;95175.53;;;2.20;68.69
66479;BME280;53294;47.912;13.526;2023-02-26T00:51:31;95174.19;;;2.43;68.12
66479;BME280;53294;47.912;13.526;2023-02-26T00:54:29;95179.44;;;2.58;67.38
66479;BME280;53294;47.912;13.526;2023-02-26T00:56:55;95173.34;;;2.58;67.47
66479;BME280;53294;47.912;13.526;2023-02-26T00:59:22;95174.41;;;2.57;67.20
66479;BME280;53294;47.912;13.526;2023-02-26T01:01:51;95176.28;;;2.41;67.86
66479;BME280;53294;47.912;13.526;2023-02-26T01:04:20;95178.41;;;2.39;68.02
66479;BME280;53294;47.912;13.526;2023-02-26T01:06:50;95181.06;;;2.28;68.51
66479;BME280;53294;47.912;13.526;2023-02-26T01:09:32;95169.69;;;2.12;68.92
66479;BME280;53294;47.912;13.526;2023-02-26T01:12:05;95168.38;;;2.00;69.01
66479;BME280;53294;47.912;13.526;2023-02-26T01:14:33;95163.06;;;1.74;69.56
66479;BME280;53294;47.912;13.526;2023-02-26T01:19:51;95172.56;;;1.49;70.29
66479;BME280;53294;47.912;13.526;2023-02-26T01:22:24;95174.13;;;1.40;70.40
66479;BME280;53294;47.912;13.526;2023-02-26T01:25:03;95172.25;;;1.30;70.58
66479;BME280;53294;47.912;13.526;2023-02-26T01:27:30;95176.75;;;1.35;70.44
66479;BME280;53294;47.912;13.526;2023-02-26T01:29:57;95176.75;;;1.30;70.64
66479;BME280;53294;47.912;13.526;2023-02-26T01:32:34;95187.06;;;1.26;70.40
66479;BME280;53294;47.912;13.526;2023-02-26T01:37:52;95184.25;;;0.90;71.07
66479;BME280;53294;47.912;13.526;2023-02-26T01:42:58;95187.22;;;0.99;70.31
66479;BME280;53294;47.912;13.526;2023-02-26T01:45:32;95184.63;;;1.14;69.77
66479;BME280;53294;47.912;13.526;2023-02-26T01:48:06;95186.94;;;0.95;70.36
66479;BME280;53294;47.912;13.526;2023-02-26T01:50:37;95188.72;;;0.79;70.89
66479;BME280;53294;47.912;13.526;2023-02-26T01:53:23;95193.03;;;0.96;70.27
66479;BME280;53294;47.912;13.526;2023-02-26T01:55:56;95198.44;;;1.21;69.32
66479;BME280;53294;47.912;13.526;2023-02-26T01:58:25;95191.53;;;1.25;69.31
66479;BME280;53294;47.912;13.526;2023-02-26T02:00:53;95194.75;;;1.33;68.99
66479;BME280;53294;47.912;13.526;2023-02-26T02:03:20;95197.22;;;0.92;70.30
66479;BME280;53294;47.912;13.526;2023-02-26T02:05:55;95204.88;;;0.83;70.42
66479;BME280;53294;47.912;13.526;2023-02-26T02:08:23;95204.22;;;0.60;70.90
66479;BME280;53294;47.912;13.526;2023-02-26T02:10:51;95205.50;;;0.52;70.97
66479;BME280;53294;47.912;13.526;2023-02-26T02:13:27;95207.81;;;0.44;70.98
66479;BME280;53294;47.912;13.526;2023-02-26T02:21:43;95217.78;;;-0.01;71.64
66479;BME280;53294;47.912;13.526;2023-02-26T02:27:12;95220.41;;;-0.06;71.98
66479;BME280;53294;47.912;13.526;2023-02-26T02:35:08;95227.81;;;-0.03;71.73
66479;BME280;53294;47.912;13.526;2023-02-26T02:38:06;95234.13;;;-0.04;71.69
66479;BME280;53294;47.912;13.526;2023-02-26T02:40:39;95235.75;;;-0.03;71.87
66479;BME280;53294;47.912;13.526;2023-02-26T02:43:17;95236.72;;;0.23;70.95
66479;BME280;53294;47.912;13.526;2023-02-26T02:46:00;95237.53;;;0.24;70.95
66479;BME280;53294;47.912;13.526;2023-02-26T02:48:42;95244.47;;;0.03;71.46
66479;BME280;53294;47.912;13.526;2023-02-26T02:51:18;95251.69;;;0.12;71.05
66479;BME280;53294;47.912;13.526;2023-02-26T02:56:45;95248.47;;;0.05;71.07
66479;BME280;53294;47.912;13.526;2023-02-26T02:59:15;95261.31;;;-0.04;71.41
66479;BME280;53294;47.912;13.526;2023-02-26T03:01:44;95262.75;;;0.42;70.37
66479;BME280;53294;47.912;13.526;2023-02-26T03:04:14;95268.66;;;0.22;70.71
66479;BME280;53294;47.912;13.526;2023-02-26T03:06:42;95281.06;;;0.16;70.77
66479;BME280;53294;47.912;13.526;2023-02-26T03:09:12;95283.78;;;0.26;70.59
66479;BME280;53294;47.912;13.526;2023-02-26T03:11:38;95282.09;;;0.47;69.86
66479;BME280;53294;47.912;13.526;2023-02-26T03:14:05;95291.00;;;0.36;70.27
66479;BME280;53294;47.912;13.526;2023-02-26T03:16:41;95297.16;;;0.14;70.91
66479;BME280;53294;47.912;13.526;2023-02-26T03:24:42;95309.28;;;0.43;70.15
66479;BME280;53294;47.912;13.526;2023-02-26T03:27:38;95328.16;;;0.57;69.70
66479;BME280;53294;47.912;13.526;2023-02-26T03:30:20;95324.13;;;0.81;68.94
66479;BME280;53294;47.912;13.526;2023-02-26T03:38:18;95319.38;;;0.51;69.64
66479;BME280;53294;47.912;13.526;2023-02-26T03:40:54;95323.34;;;0.48;69.68
66479;BME280;53294;47.912;13.526;2023-02-26T03:46:08;95333.56;;;0.72;68.76
66479;BME280;53294;47.912;13.526;2023-02-26T03:48:36;95334.53;;;0.61;69.67
66479;BME280;53294;47.912;13.526;2023-02-26T03:51:07;95338.13;;;0.49;69.92
66479;BME280;53294;47.912;13.526;2023-02-26T03:53:42;95331.88;;;0.28;70.60
66479;BME280;53294;47.912;13.526;2023-02-26T03:56:17;95339.44;;;0.20;70.86
66479;BME280;53294;47.912;13.526;2023-02-26T03:58:45;95345.84;;;0.24;70.85
66479;BME280;53294;47.912;13.526;2023-02-26T04:01:18;95340.56;;;0.24;70.92
66479;BME280;53294;47.912;13.526;2023-02-26T04:03:53;95349.91;;;0.09;71.35
66479;BME280;53294;47.912;13.526;2023-02-26T04:06:22;95356.75;;;0.05;71.42
66479;BME280;53294;47.912;13.526;2023-02-26T04:08:50;95360.94;;;0.01;71.55
66479;BME280;53294;47.912;13.526;2023-02-26T04:11:19;95356.59;;;-0.10;72.31
66479;BME280;53294;47.912;13.526;2023-02-26T04:13:47;95358.25;;;-0.04;71.97
66479;BME280;53294;47.912;13.526;2023-02-26T04:16:14;95369.34;;;-0.02;72.18
66479;BME280;53294;47.912;13.526;2023-02-26T04:18:41;95366.66;;;0.20;70.99
66479;BME280;53294;47.912;13.526;2023-02-26T04:21:13;95366.63;;;0.42;69.84
66479;BME280;53294;47.912;13.526;2023-02-26T04:23:40;95373.91;;;0.30;70.80
66479;BME280;53294;47.912;13.526;2023-02-26T04:26:06;95374.19;;;0.06;71.39
66479;BME280;53294;47.912;13.526;2023-02-26T04:28:33;95381.97;;;-0.09;71.68
66479;BME280;53294;47.912;13.526;2023-02-26T04:31:04;95377.09;;;-0.17;70.43
66479;BME280;53294;47.912;13.526;2023-02-26T04:33:31;95385.09;;;-0.12;71.11
66479;BME280;53294;47.912;13.526;2023-02-26T04:35:59;95388.72;;;-0.19;72.06
66479;BME280;53294;47.912;13.526;2023-02-26T04:38:26;95388.03;;;-0.31;72.11
66479;BME280;53294;47.912;13.526;2023-02-26T04:40:52;95400.59;;;-0.16;71.82
66479;BME280;53294;47.912;13.526;2023-02-26T04:43:19;95401.91;;;-0.19;71.91
66479;BME280;53294;47.912;13.526;2023-02-26T04:45:47;95403.97;;;-0.21;72.26
66479;BME280;53294;47.912;13.526;2023-02-26T04:48:15;95408.34;;;-0.09;71.79
66479;BME280;53294;47.912;13.526;2023-02-26T04:50:42;95416.88;;;-0.02;71.68
66479;BME280;53294;47.912;13.526;2023-02-26T04:53:09;95422.06;;;-0.12;71.83
66479;BME280;53294;47.912;13.526;2023-02-26T04:55:36;95420.06;;;-0.22;72.21
66479;BME280;53294;47.912;13.526;2023-02-26T04:58:03;95421.47;;;-0.37;72.91
66479;BME280;53294;47.912;13.526;2023-02-26T05:00:29;95421.16;;;-0.40;72.35
66479;BME280;53294;47.912;13.526;2023-02-26T05:02:56;95427.69;;;-0.26;71.96
66479;BME280;53294;47.912;13.526;2023-02-26T05:05:23;95436.75;;;-0.39;72.57
66479;BME280;53294;47.912;13.526;2023-02-26T05:07:50;95437.56;;;-0.38;72.31
66479;BME280;53294;47.912;13.526;2023-02-26T05:10:19;95437.78;;;-0.40;72.03
66479;BME280;53294;47.912;13.526;2023-02-26T05:12:45;95444.69;;;-0.16;71.29
66479;BME280;53294;47.912;13.526;2023-02-26T05:15:12;95436.03;;;0.10;70.09
66479;BME280;53294;47.912;13.526;2023-02-26T05:17:39;95440.69;;;0.03;70.09
66479;BME280;53294;47.912;13.526;2023-02-26T05:20:06;95446.59;;;0.10;69.95
66479;BME280;53294;47.912;13.526;2023-02-26T05:22:36;95450.47;;;0.03;69.79
66479;BME280;53294;47.912;13.526;2023-02-26T05:25:04;95445.72;;;-0.17;70.22
66479;BME280;53294;47.912;13.526;2023-02-26T05:27:32;95448.06;;;-0.21;70.33
66479;BME280;53294;47.912;13.526;2023-02-26T05:29:59;95447.47;;;-0.06;69.70
66479;BME280;53294;47.912;13.526;2023-02-26T05:32:26;95445.81;;;0.10;69.01
66479;BME280;53294;47.912;13.526;2023-02-26T05:34:52;95443.16;;;0.10;69.07
66479;BME280;53294;47.912;13.526;2023-02-26T05:37:19;95441.03;;;0.34;68.11
66479;BME280;53294;47.912;13.526;2023-02-26T05:39:46;95443.25;;;0.42;67.96
66479;BME280;53294;47.912;13.526;2023-02-26T05:42:13;95448.03;;;0.73;67.51
66479;BME280;53294;47.912;13.526;2023-02-26T05:44:39;95443.22;;;0.97;67.11
66479;BME280;53294;47.912;13.526;2023-02-26T05:47:06;95450.47;;;1.12;66.37
66479;BME280;53294;47.912;13.526;2023-02-26T05:49:32;95452.25;;;1.01;66.26
66479;BME280;53294;47.912;13.526;2023-02-26T05:51:59;95453.88;;;1.07;66.10
66479;BME280;53294;47.912;13.526;2023-02-26T05:54:26;95465.63;;;0.89;66.42
66479;BME280;53294;47.912;13.526;2023-02-26T05:56:53;95470.56;;;0.80;66.00
66479;BME280;53294;47.912;13.526;2023-02-26T05:59:19;95477.03;;;0.95;66.26
66479;BME280;53294;47.912;13.526;2023-02-26T06:01:46;95484.63;;;1.13;65.81
66479;BME280;53294;47.912;13.526;2023-02-26T06:04:13;95488.56;;;1.43;65.58
66479;BME280;53294;47.912;13.526;2023-02-26T06:06:39;95490.22;;;1.54;65.36
66479;BME280;53294;47.912;13.526;2023-02-26T06:09:06;95498.19;;;1.59;65.07
66479;BME280;53294;47.912;13.526;2023-02-26T06:11:33;95503.50;;;1.59;65.27
66479;BME280;53294;47.912;13.526;2023-02-26T06:14:00;95503.53;;;1.65;64.89
66479;BME280;53294;47.912;13.526;2023-02-26T06:16:27;95506.16;;;1.65;64.74
66479;BME280;53294;47.912;13.526;2023-02-26T06:18:54;95508.78;;;1.59;64.65
66479;BME280;53294;47.912;13.526;2023-02-26T06:21:21;95511.03;;;1.78;64.64
66479;BME280;53294;47.912;13.526;2023-02-26T06:23:47;95521.03;;;1.71;64.46
66479;BME280;53294;47.912;13.526;2023-02-26T06:26:14;95516.25;;;1.68;64.63
66479;BME280;53294;47.912;13.526;2023-02-26T06:28:41;95521.69;;;1.88;64.45
66479;BME280;53294;47.912;13.526;2023-02-26T06:31:07;95525.13;;;1.84;64.03
66479;BME280;53294;47.912;13.526;2023-02-26T06:33:34;95526.47;;;1.54;64.49
66479;BME280;53294;47.912;13.526;2023-02-26T06:36:01;95525.31;;;1.77;64.58
66479;BME280;53294;47.912;13.526;2023-02-26T06:38:27;95526.91;;;1.78;64.24
66479;BME280;53294;47.912;13.526;2023-02-26T06:40:54;95528.56;;;1.89;64.04
66479;BME280;53294;47.912;13.526;2023-02-26T06:43:21;95536.66;;;1.67;64.31
66479;BME280;53294;47.912;13.526;2023-02-26T06:45:48;95532.69;;;1.70;64.51
66479;BME280;53294;47.912;13.526;2023-02-26T06:48:15;95540.66;;;1.75;64.42
66479;BME280;53294;47.912;13.526;2023-02-26T06:50:41;95549.75;;;1.89;64.02
66479;BME280;53294;47.912;13.526;2023-02-26T06:53:08;95555.06;;;1.89;64.20
66479;BME280;53294;47.912;13.526;2023-02-26T06:55:35;95549.59;;;2.06;64.05
66479;BME280;53294;47.912;13.526;2023-02-26T06:58:02;95555.63;;;1.91;64.44
66479;BME280;53294;47.912;13.526;2023-02-26T07:00:28;95556.66;;;1.90;63.96
66479;BME280;53294;47.912;13.526;2023-02-26T07:02:55;95567.38;;;2.11;64.02
66479;BME280;53294;47.912;13.526;2023-02-26T07:05:23;95565.72;;;2.00;63.80
66479;BME280;53294;47.912;13.526;2023-02-26T07:07:50;95565.16;;;1.92;63.59
66479;BME280;53294;47.912;13.526;2023-02-26T07:10:17;95566.25;;;1.96;63.53
66479;BME280;53294;47.912;13.526;2023-02-26T07:12:43;95572.03;;;1.88;63.42
66479;BME280;53294;47.912;13.526;2023-02-26T07:15:10;95574.59;;;1.78;63.60
66479;BME280;53294;47.912;13.526;2023-02-26T07:17:37;95571.41;;;1.76;63.12
66479;BME280;53294;47.912;13.526;2023-02-26T07:20:04;95574.00;;;1.71;62.97
66479;BME280;53294;47.912;13.526;2023-02-26T07:22:36;95577.41;;;1.66;63.01
66479;BME280;53294;47.912;13.526;2023-02-26T07:25:04;95585.69;;;1.75;62.97
66479;BME280;53294;47.912;13.526;2023-02-26T07:27:31;95589.59;;;1.67;63.12
66479;BME280;53294;47.912;13.526;2023-02-26T07:29:59;95599.34;;;1.61;62.98
66479;BME280;53294;47.912;13.526;2023-02-26T07:32:26;95605.19;;;1.64;63.06
66479;BME280;53294;47.912;13.526;2023-02-26T07:34:53;95603.63;;;1.68;62.78
66479;BME280;53294;47.912;13.526;2023-02-26T07:37:20;95610.50;;;1.64;63.08
66479;BME280;53294;47.912;13.526;2023-02-26T07:39:46;95606.22;;;1.57;62.97
66479;BME280;53294;47.912;13.526;2023-02-26T07:42:13;95614.69;;;1.59;63.43
66479;BME280;53294;47.912;13.526;2023-02-26T07:44:40;95618.47;;;1.69;63.25
66479;BME280;53294;47.912;13.526;2023-02-26T07:47:06;95614.44;;;1.93;63.08
66479;BME280;53294;47.912;13.526;2023-02-26T07:49:33;95613.59;;;1.88;63.16
66479;BME280;53294;47.912;13.526;2023-02-26T07:52:00;95620.47;;;1.84;63.43
66479;BME280;53294;47.912;13.526;2023-02-26T07:54:27;95622.25;;;1.78;63.40
66479;BME280;53294;47.912;13.526;2023-02-26T07:56:53;95632.25;;;1.71;63.51
66479;BME280;53294;47.912;13.526;2023-02-26T07:59:20;95626.41;;;1.69;63.58
66479;BME280;53294;47.912;13.526;2023-02-26T08:01:47;95634.50;;;1.57;63.96
66479;BME280;53294;47.912;13.526;2023-02-26T08:04:14;95635.03;;;1.86;63.73
66479;BME280;53294;47.912;13.526;2023-02-26T08:06:40;95637.59;;;2.08;62.86
66479;BME280;53294;47.912;13.526;2023-02-26T08:09:07;95635.22;;;2.12;63.21
66479;BME280;53294;47.912;13.526;2023-02-26T08:11:34;95636.09;;;2.23;62.62
66479;BME280;53294;47.912;13.526;2023-02-26T08:14:05;95649.06;;;2.19;63.30
66479;BME280;53294;47.912;13.526;2023-02-26T08:16:32;95650.72;;;2.30;63.00
66479;BME280;53294;47.912;13.526;2023-02-26T08:18:59;95649.25;;;2.50;62.69
66479;BME280;53294;47.912;13.526;2023-02-26T08:21:26;95645.63;;;2.66;62.33
66479;BME280;53294;47.912;13.526;2023-02-26T08:23:53;95651.59;;;2.89;61.79
66479;BME280;53294;47.912;13.526;2023-02-26T08:26:20;95650.34;;;3.17;61.21
66479;BME280;53294;47.912;13.526;2023-02-26T08:28:47;95651.19;;;3.28;61.00
66479;BME280;53294;47.912;13.526;2023-02-26T08:31:14;95651.72;;;3.30;59.90
66479;BME280;53294;47.912;13.526;2023-02-26T08:33:41;95654.72;;;3.70;60.74
66479;BME280;53294;47.912;13.526;2023-02-26T08:36:09;95654.75;;;3.90;59.71
66479;BME280;53294;47.912;13.526;2023-02-26T08:38:36;95658.44;;;4.30;59.71
66479;BME280;53294;47.912;13.526;2023-02-26T08:41:03;95648.56;;;4.62;58.84
66479;BME280;53294;47.912;13.526;2023-02-26T08:43:29;95647.44;;;4.78;58.20
66479;BME280;53294;47.912;13.526;2023-02-26T08:45:57;95648.47;;;4.88;57.74
66479;BME280;53294;47.912;13.526;2023-02-26T08:48:23;95656.66;;;5.07;56.94
66479;BME280;53294;47.912;13.526;2023-02-26T08:50:50;95660.69;;;4.94;57.35
66479;BME280;53294;47.912;13.526;2023-02-26T08:53:17;95659.13;;;5.48;56.17
66479;BME280;53294;47.912;13.526;2023-02-26T08:55:47;95664.06;;;5.20;55.36
66479;BME280;53294;47.912;13.526;2023-02-26T08:58:14;95663.19;;;5.35;57.00
66479;BME280;53294;47.912;13.526;2023-02-26T09:00:41;95666.78;;;5.60;55.68
66479;BME280;53294;47.912;13.526;2023-02-26T09:03:07;95671.75;;;5.21;56.53
66479;BME280;53294;47.912;13.526;2023-02-26T09:05:34;95672.84;;;5.15;55.96
66479;BME280;53294;47.912;13.526;2023-02-26T09:08:01;95676.41;;;4.90;56.64
66479;BME280;53294;47.912;13.526;2023-02-26T09:10:28;95683.84;;;4.93;55.83
66479;BME280;53294;47.912;13.526;2023-02-26T09:12:54;95693.22;;;4.60;56.77
66479;BME280;53294;47.912;13.526;2023-02-26T09:15:21;95687.63;;;4.82;56.35
66479;BME280;53294;47.912;13.526;2023-02-26T09:17:48;95694.56;;;4.67;55.59
66479;BME280;53294;47.912;13.526;2023-02-26T09:20:15;95710.75;;;4.81;55.99
66479;BME280;53294;47.912;13.526;2023-02-26T09:22:41;95705.91;;;5.04;57.18
66479;BME280;53294;47.912;13.526;2023-02-26T09:25:08;95699.47;;;5.26;56.22
66479;BME280;53294;47.912;13.526;2023-02-26T09:27:35;95702.69;;;5.17;55.67
66479;BME280;53294;47.912;13.526;2023-02-26T09:30:05;95700.69;;;5.44;55.79
66479;BME280;53294;47.912;13.526;2023-02-26T09:32:32;95716.38;;;5.55;54.92
66479;BME280;53294;47.912;13.526;2023-02-26T09:34:59;95707.81;;;5.58;55.81
66479;BME280;53294;47.912;13.526;2023-02-26T09:37:26;95713.31;;;5.83;55.08
66479;BME280;53294;47.912;13.526;2023-02-26T09:39:53;95704.25;;;6.23;53.40
66479;BME280;53294;47.912;13.526;2023-02-26T09:44:56;95705.38;;;6.12;53.41
66479;BME280;53294;47.912;13.526;2023-02-26T09:47:30;95709.03;;;6.21;54.59
66479;BME280;53294;47.912;13.526;2023-02-26T09:50:18;95716.31;;;6.16;53.36
66479;BME280;53294;47.912;13.526;2023-02-26T09:55:28;95717.53;;;6.28;53.66
66479;BME280;53294;47.912;13.526;2023-02-26T09:58:01;95725.25;;;5.90;54.12
66479;BME280;53294;47.912;13.526;2023-02-26T10:00:40;95729.72;;;5.45;55.31
66479;BME280;53294;47.912;13.526;2023-02-26T10:11:30;95767.22;;;4.53;56.76
66479;BME280;53294;47.912;13.526;2023-02-26T10:14:04;95774.91;;;4.23;55.47
66479;BME280;53294;47.912;13.526;2023-02-26T10:16:37;95777.19;;;3.84;57.90
66479;BME280;53294;47.912;13.526;2023-02-26T10:19:09;95778.31;;;3.98;58.35
66479;BME280;53294;47.912;13.526;2023-02-26T10:22:39;95786.31;;;4.13;57.67
66479;BME280;53294;47.912;13.526;2023-02-26T10:25:01;95786.72;;;3.64;57.97
66479;BME280;53294;47.912;13.526;2023-02-26T10:30:35;95795.16;;;3.51;58.00
66479;BME280;53294;47.912;13.526;2023-02-26T10:35:41;95798.84;;;3.39;59.14
66479;BME280;53294;47.912;13.526;2023-02-26T10:38:14;95799.75;;;3.61;58.73
66479;BME280;53294;47.912;13.526;2023-02-26T10:40:50;95787.22;;;3.56;58.94
66479;BME280;53294;47.912;13.526;2023-02-26T10:43:22;95792.09;;;3.80;58.62
66479;BME280;53294;47.912;13.526;2023-02-26T10:51:39;95769.78;;;3.91;57.87
66479;BME280;53294;47.912;13.526;2023-02-26T10:54:30;95775.84;;;3.66;59.06
66479;BME280;53294;47.912;13.526;2023-02-26T10:56:59;95775.00;;;3.60;59.04
66479;BME280;53294;47.912;13.526;2023-02-26T10:59:26;95775.53;;;3.52;59.91
66479;BME280;53294;47.912;13.526;2023-02-26T11:01:54;95783.88;;;3.23;60.16
66479;BME280;53294;47.912;13.526;2023-02-26T11:04:24;95783.06;;;2.75;61.04
66479;BME280;53294;47.912;13.526;2023-02-26T11:06:57;95774.56;;;2.08;62.43
66479;BME280;53294;47.912;13.526;2023-02-26T11:09:30;95785.16;;;2.08;62.74
66479;BME280;53294;47.912;13.526;2023-02-26T11:14:46;95777.78;;;2.10;62.01
66479;BME280;53294;47.912;13.526;2023-02-26T11:17:19;95800.63;;;2.16;61.93
66479;BME280;53294;47.912;13.526;2023-02-26T11:20:00;95801.78;;;2.25;61.70
66479;BME280;53294;47.912;13.526;2023-02-26T11:22:33;95771.28;;;2.60;61.58
66479;BME280;53294;47.912;13.526;2023-02-26T11:25:03;95750.47;;;2.79;61.51
66479;BME280;53294;47.912;13.526;2023-02-26T11:27:33;95741.63;;;2.68;61.38
66479;BME280;53294;47.912;13.526;2023-02-26T11:30:15;95729.09;;;3.01;61.37
66479;BME280;53294;47.912;13.526;2023-02-26T11:32:45;95760.22;;;3.16;60.51
66479;BME280;53294;47.912;13.526;2023-02-26T11:35:16;95782.97;;;3.50;59.72
66479;BME280;53294;47.912;13.526;2023-02-26T11:37:58;95774.41;;;3.37;59.29
66479;BME280;53294;47.912;13.526;2023-02-26T11:40:47;95784.63;;;3.13;59.84
66479;BME280;53294;47.912;13.526;2023-02-26T11:43:18;95767.81;;;2.92;60.53
66479;BME280;53294;47.912;13.526;2023-02-26T11:45:51;95765.19;;;2.97;61.59
66479;BME280;53294;47.912;13.526;2023-02-26T11:48:25;95755.56;;;2.86;60.09
66479;BME280;53294;47.912;13.526;2023-02-26T11:50:56;95762.06;;;2.68;61.51
66479;BME280;53294;47.912;13.526;2023-02-26T11:58:58;95764.00;;;2.45;62.19
66479;BME280;53294;47.912;13.526;2023-02-26T12:01:27;95766.34;;;2.37;61.95
66479;BME280;53294;47.912;13.526;2023-02-26T12:04:00;95772.91;;;2.61;61.88
66479;BME280;53294;47.912;13.526;2023-02-26T12:06:28;95774.84;;;2.76;60.35
66479;BME280;53294;47.912;13.526;2023-02-26T12:08:55;95783.94;;;2.48;60.84
66479;BME280;53294;47.912;13.526;2023-02-26T12:14:13;95784.06;;;2.63;61.57
66479;BME280;53294;47.912;13.526;2023-02-26T12:23:25;95801.13;;;3.20;60.38
66479;BME280;53294;47.912;13.526;2023-02-26T12:28:51;95812.47;;;3.11;60.30
66479;BME280;53294;47.912;13.526;2023-02-26T12:43:00;95817.91;;;2.88;61.48
66479;BME280;53294;47.912;13.526;2023-02-26T12:48:30;95808.00;;;2.41;62.90
66479;BME280;53294;47.912;13.526;2023-02-26T13:10:19;95809.16;;;4.04;58.15
66479;BME280;53294;47.912;13.526;2023-02-26T13:20:39;95787.91;;;6.38;55.56
66479;BME280;53294;47.912;13.526;2023-02-26T13:23:18;95779.19;;;7.20;54.28
66479;BME280;53294;47.912;13.526;2023-02-26T13:25:50;95788.19;;;7.29;55.20
66479;BME280;53294;47.912;13.526;2023-02-26T13:31:17;95782.38;;;5.74;53.75
66479;BME280;53294;47.912;13.526;2023-02-26T13:33:45;95812.97;;;4.65;55.49
66479;BME280;53294;47.912;13.526;2023-02-26T13:36:13;95814.81;;;4.85;57.33
66479;BME280;53294;47.912;13.526;2023-02-26T13:41:46;95843.28;;;4.48;58.04
66479;BME280;53294;47.912;13.526;2023-02-26T13:47:33;95849.22;;;3.82;60.93
66479;BME280;53294;47.912;13.526;2023-02-26T13:51:17;95855.91;;;3.37;61.07
66479;BME280;53294;47.912;13.526;2023-02-26T13:59:31;95846.38;;;2.98;62.39
66479;BME280;53294;47.912;13.526;2023-02-26T14:08:08;95853.03;;;3.06;61.02
66479;BME280;53294;47.912;13.526;2023-02-26T14:11:01;95850.72;;;3.15;61.12
66479;BME280;53294;47.912;13.526;2023-02-26T14:13:38;95846.69;;;2.69;61.26
66479;BME280;53294;47.912;13.526;2023-02-26T14:18:48;95866.75;;;2.60;62.64
66479;BME280;53294;47.912;13.526;2023-02-26T14:21:37;95872.94;;;1.89;63.25
66479;BME280;53294;47.912;13.526;2023-02-26T14:26:35;95855.69;;;1.87;65.19
66479;BME280;53294;47.912;13.526;2023-02-26T14:29:06;95850.25;;;1.98;64.25
66479;BME280;53294;47.912;13.526;2023-02-26T14:32:03;95844.88;;;2.43;62.75
66479;BME280;53294;47.912;13.526;2023-02-26T14:34:36;95849.22;;;2.54;62.38
66479;BME280;53294;47.912;13.526;2023-02-26T14:37:07;95844.19;;;2.90;61.05
66479;BME280;53294;47.912;13.526;2023-02-26T14:39:41;95840.16;;;2.50;61.23
66479;BME280;53294;47.912;13.526;2023-02-26T14:42:13;95841.78;;;2.88;60.13
66479;BME280;53294;47.912;13.526;2023-02-26T14:44:43;95833.88;;;2.94;59.92
66479;BME280;53294;47.912;13.526;2023-02-26T14:47:12;95837.88;;;3.01;60.23
66479;BME280;53294;47.912;13.526;2023-02-26T14:49:42;95837.47;;;3.15;59.11
66479;BME280;53294;47.912;13.526;2023-02-26T15:06:58;95895.03;;;2.77;59.96
66479;BME280;53294;47.912;13.526;2023-02-26T15:20:56;95896.59;;;3.48;57.57
66479;BME280;53294;47.912;13.526;2023-02-26T15:24:06;95910.19;;;3.56;56.95
66479;BME280;53294;47.912;13.526;2023-02-26T15:26:31;95901.84;;;3.37;57.31
66479;BME280;53294;47.912;13.526;2023-02-26T15:29:02;95890.78;;;3.13;57.46
66479;BME280;53294;47.912;13.526;2023-02-26T15:31:33;95900.75;;;2.96;58.55
66479;BME280;53294;47.912;13.526;2023-02-26T15:34:01;95894.72;;;3.05;58.37
66479;BME280;53294;47.912;13.526;2023-02-26T15:36:30;95889.75;;;2.82;58.25
66479;BME280;53294;47.912;13.526;2023-02-26T15:38:58;95894.94;;;2.39;59.45
66479;BME280;53294;47.912;13.526;2023-02-26T15:41:30;95925.16;;;1.72;61.43
66479;BME280;53294;47.912;13.526;2023-02-26T15:44:01;95925.78;;;1.79;62.15
66479;BME280;53294;47.912;13.526;2023-02-26T15:46:32;95929.38;;;2.12;60.42
66479;BME280;53294;47.912;13.526;2023-02-26T15:49:04;95924.25;;;2.27;59.18
66479;BME280;53294;47.912;13.526;2023-02-26T15:51:32;95932.72;;;2.02;59.39
66479;BME280;53294;47.912;13.526;2023-02-26T15:53:59;95942.34;;;1.52;62.67
66479;BME280;53294;47.912;13.526;2023-02-26T15:56:34;95945.13;;;1.40;63.17
66479;BME280;53294;47.912;13.526;2023-02-26T15:59:15;95959.06;;;1.02;63.99
66479;BME280;53294;47.912;13.526;2023-02-26T16:01:43;95960.34;;;1.16;63.65
66479;BME280;53294;47.912;13.526;2023-02-26T16:04:15;95957.31;;;1.24;63.87
66479;BME280;53294;47.912;13.526;2023-02-26T16:06:45;95958.75;;;1.49;63.84
66479;BME280;53294;47.912;13.526;2023-02-26T16:09:32;95963.78;;;1.51;63.44
66479;BME280;53294;47.912;13.526;2023-02-26T16:12:11;95969.66;;;1.53;63.28
66479;BME280;53294;47.912;13.526;2023-02-26T16:14:44;95972.66;;;1.61;63.14
66479;BME280;53294;47.912;13.526;2023-02-26T16:17:24;95971.81;;;1.39;63.37
66479;BME280;53294;47.912;13.526;2023-02-26T16:19:52;95985.84;;;1.56;63.02
66479;BME280;53294;47.912;13.526;2023-02-26T16:22:28;95987.19;;;1.76;62.27